sensor_id;sensor_type;location;lat;lon;timestamp;P1;durP1;ratioP1;P2;durP2;ratioP2
7150;SDS011;3617;48.836;9.172;2022-09-27T00:00:21;1.53;;;1.10;;
7150;SDS011;3617;48.836;9.172;2022-09-27T00:02:47;1.53;;;1.30;;
7150;SDS011;3617;48.836;9.172;2022-09-27T00:05:14;1.50;;;1.30;;
7150;SDS011;3617;48.836;9.172;2022-09-27T00:07:40;1.43;;;0.97;;
7150;SDS011;3617;48.836;9.172;2022-09-27T00:10:06;1.60;;;1.10;;
7150;SDS011;3617;48.836;9.172;2022-09-27T00:12:33;2.67;;;1.30;;
7150;SDS011;3617;48.836;9.172;2022-09-27T00:14:59;0.97;;;0.90;;
7150;SDS011;3617;48.836;9.172;2022-09-27T00:17:26;1.33;;;1.10;;
7150;SDS011;3617;48.836;9.172;2022-09-27T00:19:52;1.30;;;1.10;;
7150;SDS011;3617;48.836;9.172;2022-09-27T00:22:20;1.30;;;1.20;;
7150;SDS011;3617;48.836;9.172;2022-09-27T00:24:46;1.20;;;1.10;;
7150;SDS011;3617;48.836;9.172;2022-09-27T00:27:12;3.33;;;1.13;;
7150;SDS011;3617;48.836;9.172;2022-09-27T00:29:38;1.07;;;0.97;;
7150;SDS011;3617;48.836;9.172;2022-09-27T00:32:04;1.03;;;0.93;;
7150;SDS011;3617;48.836;9.172;2022-09-27T00:34:30;1.40;;;1.10;;
7150;SDS011;3617;48.836;9.172;2022-09-27T00:36:56;1.13;;;1.03;;
7150;SDS011;3617;48.836;9.172;2022-09-27T00:39:22;0.80;;;0.80;;
7150;SDS011;3617;48.836;9.172;2022-09-27T00:41:48;1.20;;;1.10;;
7150;SDS011;3617;48.836;9.172;2022-09-27T00:47:06;0.83;;;0.83;;
7150;SDS011;3617;48.836;9.172;2022-09-27T00:49:42;0.97;;;0.90;;
7150;SDS011;3617;48.836;9.172;2022-09-27T00:52:16;1.00;;;0.90;;
7150;SDS011;3617;48.836;9.172;2022-09-27T00:54:45;1.60;;;1.10;;
7150;SDS011;3617;48.836;9.172;2022-09-27T00:57:14;1.93;;;1.00;;
7150;SDS011;3617;48.836;9.172;2022-09-27T00:59:42;1.27;;;0.87;;
7150;SDS011;3617;48.836;9.172;2022-09-27T01:02:09;1.13;;;0.93;;
7150;SDS011;3617;48.836;9.172;2022-09-27T01:04:35;1.00;;;0.90;;
7150;SDS011;3617;48.836;9.172;2022-09-27T01:07:03;1.00;;;0.87;;
7150;SDS011;3617;48.836;9.172;2022-09-27T01:09:29;1.20;;;0.90;;
7150;SDS011;3617;48.836;9.172;2022-09-27T01:11:56;1.47;;;1.00;;
7150;SDS011;3617;48.836;9.172;2022-09-27T01:17:15;0.90;;;0.90;;
7150;SDS011;3617;48.836;9.172;2022-09-27T01:19:50;1.90;;;0.93;;
7150;SDS011;3617;48.836;9.172;2022-09-27T01:22:41;1.53;;;1.07;;
7150;SDS011;3617;48.836;9.172;2022-09-27T01:30:32;0.87;;;0.83;;
7150;SDS011;3617;48.836;9.172;2022-09-27T01:33:06;1.00;;;0.90;;
7150;SDS011;3617;48.836;9.172;2022-09-27T01:35:40;1.00;;;1.00;;
7150;SDS011;3617;48.836;9.172;2022-09-27T01:38:11;1.23;;;0.90;;
7150;SDS011;3617;48.836;9.172;2022-09-27T01:40:40;1.13;;;1.03;;
7150;SDS011;3617;48.836;9.172;2022-09-27T01:43:12;0.97;;;0.87;;
7150;SDS011;3617;48.836;9.172;2022-09-27T01:45:45;0.90;;;0.90;;
7150;SDS011;3617;48.836;9.172;2022-09-27T01:48:16;0.80;;;0.80;;
7150;SDS011;3617;48.836;9.172;2022-09-27T01:50:51;2.40;;;0.90;;
7150;SDS011;3617;48.836;9.172;2022-09-27T01:53:21;0.97;;;0.83;;
7150;SDS011;3617;48.836;9.172;2022-09-27T01:55:48;1.97;;;1.20;;
7150;SDS011;3617;48.836;9.172;2022-09-27T01:58:17;2.00;;;1.10;;
7150;SDS011;3617;48.836;9.172;2022-09-27T02:00:46;0.87;;;0.80;;
7150;SDS011;3617;48.836;9.172;2022-09-27T02:03:13;0.83;;;0.83;;
7150;SDS011;3617;48.836;9.172;2022-09-27T02:05:43;1.20;;;1.10;;
7150;SDS011;3617;48.836;9.172;2022-09-27T02:08:21;1.00;;;0.90;;
7150;SDS011;3617;48.836;9.172;2022-09-27T02:10:48;1.17;;;1.07;;
7150;SDS011;3617;48.836;9.172;2022-09-27T02:13:18;2.00;;;1.00;;
7150;SDS011;3617;48.836;9.172;2022-09-27T02:16:02;0.87;;;0.83;;
7150;SDS011;3617;48.836;9.172;2022-09-27T02:18:32;2.27;;;1.10;;
7150;SDS011;3617;48.836;9.172;2022-09-27T02:20:59;1.37;;;0.97;;
7150;SDS011;3617;48.836;9.172;2022-09-27T02:23:37;0.90;;;0.90;;
7150;SDS011;3617;48.836;9.172;2022-09-27T02:26:17;1.43;;;0.90;;
7150;SDS011;3617;48.836;9.172;2022-09-27T02:28:49;1.37;;;0.80;;
7150;SDS011;3617;48.836;9.172;2022-09-27T02:31:17;1.00;;;0.80;;
7150;SDS011;3617;48.836;9.172;2022-09-27T02:33:54;1.80;;;1.00;;
7150;SDS011;3617;48.836;9.172;2022-09-27T02:36:21;1.10;;;1.00;;
7150;SDS011;3617;48.836;9.172;2022-09-27T02:38:48;0.97;;;0.83;;
7150;SDS011;3617;48.836;9.172;2022-09-27T02:41:14;1.10;;;1.00;;
7150;SDS011;3617;48.836;9.172;2022-09-27T02:43:40;1.40;;;1.10;;
7150;SDS011;3617;48.836;9.172;2022-09-27T02:51:28;0.70;;;0.70;;
7150;SDS011;3617;48.836;9.172;2022-09-27T02:59:40;1.57;;;0.93;;
7150;SDS011;3617;48.836;9.172;2022-09-27T03:07:20;1.20;;;1.10;;
7150;SDS011;3617;48.836;9.172;2022-09-27T03:09:47;3.87;;;1.20;;
7150;SDS011;3617;48.836;9.172;2022-09-27T03:12:14;1.10;;;1.00;;
7150;SDS011;3617;48.836;9.172;2022-09-27T03:14:46;1.00;;;0.90;;
7150;SDS011;3617;48.836;9.172;2022-09-27T03:17:13;3.60;;;1.07;;
7150;SDS011;3617;48.836;9.172;2022-09-27T03:19:39;2.73;;;1.10;;
7150;SDS011;3617;48.836;9.172;2022-09-27T03:22:05;1.20;;;1.10;;
7150;SDS011;3617;48.836;9.172;2022-09-27T03:24:31;1.00;;;0.90;;
7150;SDS011;3617;48.836;9.172;2022-09-27T03:26:57;1.37;;;1.00;;
7150;SDS011;3617;48.836;9.172;2022-09-27T03:29:23;1.63;;;1.00;;
7150;SDS011;3617;48.836;9.172;2022-09-27T03:31:49;1.50;;;0.90;;
7150;SDS011;3617;48.836;9.172;2022-09-27T03:34:15;1.63;;;1.13;;
7150;SDS011;3617;48.836;9.172;2022-09-27T03:36:41;3.83;;;1.20;;
7150;SDS011;3617;48.836;9.172;2022-09-27T03:39:07;1.20;;;1.10;;
7150;SDS011;3617;48.836;9.172;2022-09-27T03:41:33;3.80;;;1.40;;
7150;SDS011;3617;48.836;9.172;2022-09-27T03:43:59;1.97;;;1.40;;
7150;SDS011;3617;48.836;9.172;2022-09-27T03:46:25;3.87;;;1.30;;
7150;SDS011;3617;48.836;9.172;2022-09-27T03:48:51;1.30;;;1.20;;
7150;SDS011;3617;48.836;9.172;2022-09-27T03:51:17;2.63;;;1.30;;
7150;SDS011;3617;48.836;9.172;2022-09-27T03:53:43;3.93;;;1.40;;
7150;SDS011;3617;48.836;9.172;2022-09-27T03:56:09;3.47;;;1.70;;
7150;SDS011;3617;48.836;9.172;2022-09-27T03:58:35;4.37;;;1.60;;
7150;SDS011;3617;48.836;9.172;2022-09-27T04:01:01;2.07;;;1.50;;
7150;SDS011;3617;48.836;9.172;2022-09-27T04:03:28;4.10;;;1.60;;
7150;SDS011;3617;48.836;9.172;2022-09-27T04:05:54;2.47;;;1.70;;
7150;SDS011;3617;48.836;9.172;2022-09-27T04:08:20;3.47;;;1.93;;
7150;SDS011;3617;48.836;9.172;2022-09-27T04:10:46;3.87;;;1.50;;
7150;SDS011;3617;48.836;9.172;2022-09-27T04:13:12;2.57;;;2.07;;
7150;SDS011;3617;48.836;9.172;2022-09-27T04:15:38;2.37;;;1.87;;
7150;SDS011;3617;48.836;9.172;2022-09-27T04:18:04;4.20;;;1.80;;
7150;SDS011;3617;48.836;9.172;2022-09-27T04:20:31;3.93;;;1.80;;
7150;SDS011;3617;48.836;9.172;2022-09-27T04:22:57;2.20;;;1.77;;
7150;SDS011;3617;48.836;9.172;2022-09-27T04:25:23;3.77;;;2.00;;
7150;SDS011;3617;48.836;9.172;2022-09-27T04:27:49;4.20;;;2.07;;
7150;SDS011;3617;48.836;9.172;2022-09-27T04:30:19;5.90;;;2.10;;
7150;SDS011;3617;48.836;9.172;2022-09-27T04:32:45;2.87;;;2.17;;
7150;SDS011;3617;48.836;9.172;2022-09-27T04:35:11;7.83;;;2.50;;
7150;SDS011;3617;48.836;9.172;2022-09-27T04:37:56;4.23;;;2.53;;
7150;SDS011;3617;48.836;9.172;2022-09-27T04:40:22;6.57;;;2.53;;
7150;SDS011;3617;48.836;9.172;2022-09-27T04:42:49;3.83;;;2.47;;
7150;SDS011;3617;48.836;9.172;2022-09-27T04:45:15;5.97;;;2.67;;
7150;SDS011;3617;48.836;9.172;2022-09-27T04:47:42;5.03;;;2.23;;
7150;SDS011;3617;48.836;9.172;2022-09-27T04:50:08;5.63;;;2.40;;
7150;SDS011;3617;48.836;9.172;2022-09-27T04:52:34;4.53;;;2.60;;
7150;SDS011;3617;48.836;9.172;2022-09-27T04:55:01;3.80;;;2.43;;
7150;SDS011;3617;48.836;9.172;2022-09-27T04:57:27;4.90;;;2.30;;
7150;SDS011;3617;48.836;9.172;2022-09-27T04:59:53;6.13;;;2.70;;
7150;SDS011;3617;48.836;9.172;2022-09-27T05:02:19;3.90;;;2.27;;
7150;SDS011;3617;48.836;9.172;2022-09-27T05:04:45;4.70;;;2.60;;
7150;SDS011;3617;48.836;9.172;2022-09-27T05:07:11;3.57;;;2.47;;
7150;SDS011;3617;48.836;9.172;2022-09-27T05:09:37;5.63;;;1.97;;
7150;SDS011;3617;48.836;9.172;2022-09-27T05:12:03;4.83;;;2.17;;
7150;SDS011;3617;48.836;9.172;2022-09-27T05:14:31;7.97;;;2.17;;
7150;SDS011;3617;48.836;9.172;2022-09-27T05:16:57;8.20;;;1.80;;
7150;SDS011;3617;48.836;9.172;2022-09-27T05:19:23;5.97;;;2.07;;
7150;SDS011;3617;48.836;9.172;2022-09-27T05:21:49;3.67;;;2.20;;
7150;SDS011;3617;48.836;9.172;2022-09-27T05:24:15;3.83;;;1.90;;
7150;SDS011;3617;48.836;9.172;2022-09-27T05:26:41;2.40;;;1.90;;
7150;SDS011;3617;48.836;9.172;2022-09-27T05:29:09;3.97;;;1.67;;
7150;SDS011;3617;48.836;9.172;2022-09-27T05:31:35;3.67;;;1.97;;
7150;SDS011;3617;48.836;9.172;2022-09-27T05:34:01;5.80;;;1.80;;
7150;SDS011;3617;48.836;9.172;2022-09-27T05:36:27;2.70;;;1.97;;
7150;SDS011;3617;48.836;9.172;2022-09-27T05:38:54;5.00;;;1.70;;
7150;SDS011;3617;48.836;9.172;2022-09-27T05:41:20;2.90;;;1.90;;
7150;SDS011;3617;48.836;9.172;2022-09-27T05:43:46;3.77;;;2.13;;
7150;SDS011;3617;48.836;9.172;2022-09-27T05:46:12;6.03;;;2.30;;
7150;SDS011;3617;48.836;9.172;2022-09-27T05:48:38;2.67;;;1.50;;
7150;SDS011;3617;48.836;9.172;2022-09-27T05:51:04;2.53;;;1.57;;
7150;SDS011;3617;48.836;9.172;2022-09-27T05:53:30;1.97;;;1.77;;
7150;SDS011;3617;48.836;9.172;2022-09-27T05:55:59;1.63;;;1.53;;
7150;SDS011;3617;48.836;9.172;2022-09-27T05:58:25;3.57;;;1.70;;
7150;SDS011;3617;48.836;9.172;2022-09-27T06:00:52;3.77;;;1.90;;
7150;SDS011;3617;48.836;9.172;2022-09-27T06:03:18;3.93;;;1.67;;
7150;SDS011;3617;48.836;9.172;2022-09-27T06:05:44;2.13;;;1.30;;
7150;SDS011;3617;48.836;9.172;2022-09-27T06:08:11;1.70;;;1.53;;
7150;SDS011;3617;48.836;9.172;2022-09-27T06:10:38;2.67;;;1.77;;
7150;SDS011;3617;48.836;9.172;2022-09-27T06:13:05;2.90;;;1.73;;
7150;SDS011;3617;48.836;9.172;2022-09-27T06:15:32;2.60;;;1.80;;
7150;SDS011;3617;48.836;9.172;2022-09-27T06:18:16;1.83;;;1.50;;
7150;SDS011;3617;48.836;9.172;2022-09-27T06:20:43;4.07;;;3.07;;
7150;SDS011;3617;48.836;9.172;2022-09-27T06:23:10;4.30;;;2.57;;
7150;SDS011;3617;48.836;9.172;2022-09-27T06:25:36;4.10;;;2.70;;
7150;SDS011;3617;48.836;9.172;2022-09-27T06:28:03;2.20;;;1.80;;
7150;SDS011;3617;48.836;9.172;2022-09-27T06:30:29;4.50;;;1.60;;
7150;SDS011;3617;48.836;9.172;2022-09-27T06:32:59;2.00;;;1.80;;
7150;SDS011;3617;48.836;9.172;2022-09-27T06:35:28;2.90;;;1.70;;
7150;SDS011;3617;48.836;9.172;2022-09-27T06:37:55;1.70;;;1.57;;
7150;SDS011;3617;48.836;9.172;2022-09-27T06:40:21;2.70;;;1.60;;
7150;SDS011;3617;48.836;9.172;2022-09-27T06:42:50;2.30;;;1.50;;
7150;SDS011;3617;48.836;9.172;2022-09-27T06:45:16;1.57;;;1.30;;
7150;SDS011;3617;48.836;9.172;2022-09-27T06:47:42;3.40;;;1.10;;
7150;SDS011;3617;48.836;9.172;2022-09-27T06:50:08;2.03;;;0.90;;
7150;SDS011;3617;48.836;9.172;2022-09-27T06:52:34;1.20;;;1.00;;
7150;SDS011;3617;48.836;9.172;2022-09-27T06:55:01;1.47;;;1.27;;
7150;SDS011;3617;48.836;9.172;2022-09-27T06:57:28;1.10;;;1.00;;
7150;SDS011;3617;48.836;9.172;2022-09-27T07:00:13;1.03;;;0.97;;
7150;SDS011;3617;48.836;9.172;2022-09-27T07:02:48;1.67;;;1.10;;
7150;SDS011;3617;48.836;9.172;2022-09-27T07:05:14;1.37;;;0.70;;
7150;SDS011;3617;48.836;9.172;2022-09-27T07:07:40;1.00;;;0.90;;
7150;SDS011;3617;48.836;9.172;2022-09-27T07:10:08;1.27;;;1.10;;
7150;SDS011;3617;48.836;9.172;2022-09-27T07:12:34;0.80;;;0.80;;
7150;SDS011;3617;48.836;9.172;2022-09-27T07:15:00;0.97;;;0.90;;
7150;SDS011;3617;48.836;9.172;2022-09-27T07:17:26;1.30;;;1.00;;
7150;SDS011;3617;48.836;9.172;2022-09-27T07:19:52;2.57;;;1.10;;
7150;SDS011;3617;48.836;9.172;2022-09-27T07:22:18;1.10;;;1.00;;
7150;SDS011;3617;48.836;9.172;2022-09-27T07:24:44;0.90;;;0.90;;
7150;SDS011;3617;48.836;9.172;2022-09-27T07:27:10;3.33;;;1.00;;
7150;SDS011;3617;48.836;9.172;2022-09-27T07:29:36;1.07;;;0.80;;
7150;SDS011;3617;48.836;9.172;2022-09-27T07:32:03;0.93;;;0.80;;
7150;SDS011;3617;48.836;9.172;2022-09-27T07:34:29;1.30;;;0.90;;
7150;SDS011;3617;48.836;9.172;2022-09-27T07:36:58;1.47;;;1.07;;
7150;SDS011;3617;48.836;9.172;2022-09-27T07:39:24;1.00;;;0.90;;
7150;SDS011;3617;48.836;9.172;2022-09-27T07:41:50;0.73;;;0.73;;
7150;SDS011;3617;48.836;9.172;2022-09-27T07:44:16;1.10;;;0.90;;
7150;SDS011;3617;48.836;9.172;2022-09-27T07:46:42;0.80;;;0.80;;
7150;SDS011;3617;48.836;9.172;2022-09-27T07:49:09;0.90;;;0.87;;
7150;SDS011;3617;48.836;9.172;2022-09-27T07:51:35;1.60;;;0.90;;
7150;SDS011;3617;48.836;9.172;2022-09-27T07:54:01;1.50;;;1.10;;
7150;SDS011;3617;48.836;9.172;2022-09-27T07:56:27;2.00;;;1.17;;
7150;SDS011;3617;48.836;9.172;2022-09-27T07:58:53;2.00;;;1.10;;
7150;SDS011;3617;48.836;9.172;2022-09-27T08:01:19;1.50;;;1.00;;
7150;SDS011;3617;48.836;9.172;2022-09-27T08:03:45;1.20;;;1.03;;
7150;SDS011;3617;48.836;9.172;2022-09-27T08:06:11;1.20;;;1.10;;
7150;SDS011;3617;48.836;9.172;2022-09-27T08:08:38;1.03;;;0.90;;
7150;SDS011;3617;48.836;9.172;2022-09-27T08:11:11;1.77;;;1.40;;
7150;SDS011;3617;48.836;9.172;2022-09-27T08:13:39;6.33;;;1.20;;
7150;SDS011;3617;48.836;9.172;2022-09-27T08:16:05;1.47;;;1.20;;
7150;SDS011;3617;48.836;9.172;2022-09-27T08:18:31;0.90;;;0.90;;
7150;SDS011;3617;48.836;9.172;2022-09-27T08:20:57;1.37;;;1.10;;
7150;SDS011;3617;48.836;9.172;2022-09-27T08:23:23;1.30;;;1.20;;
7150;SDS011;3617;48.836;9.172;2022-09-27T08:25:53;1.80;;;1.10;;
7150;SDS011;3617;48.836;9.172;2022-09-27T08:28:19;1.10;;;1.00;;
7150;SDS011;3617;48.836;9.172;2022-09-27T08:30:46;1.10;;;0.80;;
7150;SDS011;3617;48.836;9.172;2022-09-27T08:33:12;0.70;;;0.70;;
7150;SDS011;3617;48.836;9.172;2022-09-27T08:35:38;1.43;;;0.90;;
7150;SDS011;3617;48.836;9.172;2022-09-27T08:38:04;0.63;;;0.60;;
7150;SDS011;3617;48.836;9.172;2022-09-27T08:45:58;0.70;;;0.70;;
7150;SDS011;3617;48.836;9.172;2022-09-27T08:48:26;0.70;;;0.70;;
7150;SDS011;3617;48.836;9.172;2022-09-27T08:50:53;0.90;;;0.80;;
7150;SDS011;3617;48.836;9.172;2022-09-27T08:54:05;3.63;;;0.90;;
7150;SDS011;3617;48.836;9.172;2022-09-27T08:56:07;2.23;;;1.00;;
7150;SDS011;3617;48.836;9.172;2022-09-27T09:01:03;2.40;;;0.90;;
7150;SDS011;3617;48.836;9.172;2022-09-27T09:03:33;1.37;;;0.80;;
7150;SDS011;3617;48.836;9.172;2022-09-27T09:08:29;2.13;;;1.40;;
7150;SDS011;3617;48.836;9.172;2022-09-27T09:19:25;2.33;;;1.20;;
7150;SDS011;3617;48.836;9.172;2022-09-27T09:22:04;1.57;;;1.20;;
7150;SDS011;3617;48.836;9.172;2022-09-27T09:24:40;1.43;;;1.10;;
7150;SDS011;3617;48.836;9.172;2022-09-27T09:29:50;1.40;;;0.90;;
7150;SDS011;3617;48.836;9.172;2022-09-27T09:34:53;1.10;;;0.90;;
7150;SDS011;3617;48.836;9.172;2022-09-27T09:37:32;3.83;;;1.20;;
7150;SDS011;3617;48.836;9.172;2022-09-27T09:40:02;1.80;;;0.90;;
7150;SDS011;3617;48.836;9.172;2022-09-27T09:42:32;1.23;;;0.90;;
7150;SDS011;3617;48.836;9.172;2022-09-27T09:47:35;0.80;;;0.80;;
7150;SDS011;3617;48.836;9.172;2022-09-27T09:50:25;1.05;;;0.95;;
7150;SDS011;3617;48.836;9.172;2022-09-27T09:52:56;3.88;;;1.00;;
7150;SDS011;3617;48.836;9.172;2022-09-27T09:55:25;1.10;;;0.85;;
7150;SDS011;3617;48.836;9.172;2022-09-27T10:00:57;1.15;;;0.90;;
7150;SDS011;3617;48.836;9.172;2022-09-27T10:03:24;2.37;;;1.00;;
7150;SDS011;3617;48.836;9.172;2022-09-27T10:05:50;1.42;;;1.33;;
7150;SDS011;3617;48.836;9.172;2022-09-27T10:08:18;3.20;;;1.60;;
7150;SDS011;3617;48.836;9.172;2022-09-27T10:10:44;2.73;;;1.17;;
7150;SDS011;3617;48.836;9.172;2022-09-27T10:13:14;2.13;;;1.07;;
7150;SDS011;3617;48.836;9.172;2022-09-27T10:15:41;1.10;;;1.00;;
7150;SDS011;3617;48.836;9.172;2022-09-27T10:18:08;3.47;;;1.50;;
7150;SDS011;3617;48.836;9.172;2022-09-27T10:20:55;3.03;;;1.17;;
7150;SDS011;3617;48.836;9.172;2022-09-27T10:23:22;1.58;;;1.13;;
7150;SDS011;3617;48.836;9.172;2022-09-27T10:28:34;2.13;;;1.13;;
7150;SDS011;3617;48.836;9.172;2022-09-27T10:31:05;1.87;;;1.40;;
7150;SDS011;3617;48.836;9.172;2022-09-27T10:33:31;1.70;;;1.20;;
7150;SDS011;3617;48.836;9.172;2022-09-27T10:35:58;1.87;;;1.00;;
7150;SDS011;3617;48.836;9.172;2022-09-27T10:40:52;2.20;;;1.30;;
7150;SDS011;3617;48.836;9.172;2022-09-27T10:43:27;1.10;;;1.00;;
7150;SDS011;3617;48.836;9.172;2022-09-27T10:45:58;2.23;;;1.20;;
7150;SDS011;3617;48.836;9.172;2022-09-27T10:48:25;1.63;;;1.00;;
7150;SDS011;3617;48.836;9.172;2022-09-27T10:50:55;1.43;;;1.13;;
7150;SDS011;3617;48.836;9.172;2022-09-27T10:53:22;1.33;;;1.13;;
7150;SDS011;3617;48.836;9.172;2022-09-27T10:55:49;1.43;;;1.00;;
7150;SDS011;3617;48.836;9.172;2022-09-27T10:58:32;1.47;;;1.20;;
7150;SDS011;3617;48.836;9.172;2022-09-27T11:00:59;2.20;;;1.07;;
7150;SDS011;3617;48.836;9.172;2022-09-27T11:03:27;1.20;;;1.10;;
7150;SDS011;3617;48.836;9.172;2022-09-27T11:05:54;1.00;;;0.90;;
7150;SDS011;3617;48.836;9.172;2022-09-27T11:08:21;1.43;;;1.13;;
7150;SDS011;3617;48.836;9.172;2022-09-27T11:11:15;1.20;;;0.97;;
7150;SDS011;3617;48.836;9.172;2022-09-27T11:14:00;1.77;;;1.10;;
7150;SDS011;3617;48.836;9.172;2022-09-27T11:21:43;1.20;;;1.00;;
7150;SDS011;3617;48.836;9.172;2022-09-27T11:27:13;1.10;;;1.00;;
7150;SDS011;3617;48.836;9.172;2022-09-27T11:34:47;0.80;;;0.80;;
7150;SDS011;3617;48.836;9.172;2022-09-27T11:39:48;1.50;;;1.10;;
7150;SDS011;3617;48.836;9.172;2022-09-27T11:42:38;2.53;;;1.50;;
7150;SDS011;3617;48.836;9.172;2022-09-27T11:45:14;1.63;;;1.13;;
7150;SDS011;3617;48.836;9.172;2022-09-27T11:50:22;1.13;;;0.90;;
7150;SDS011;3617;48.836;9.172;2022-09-27T11:53:01;1.73;;;0.90;;
7150;SDS011;3617;48.836;9.172;2022-09-27T11:58:01;1.17;;;0.97;;
7150;SDS011;3617;48.836;9.172;2022-09-27T12:05:50;1.90;;;1.20;;
7150;SDS011;3617;48.836;9.172;2022-09-27T12:08:23;3.17;;;1.00;;
7150;SDS011;3617;48.836;9.172;2022-09-27T12:10:53;0.97;;;0.90;;
7150;SDS011;3617;48.836;9.172;2022-09-27T12:13:30;1.40;;;1.03;;
7150;SDS011;3617;48.836;9.172;2022-09-27T12:15:57;1.93;;;0.90;;
7150;SDS011;3617;48.836;9.172;2022-09-27T12:18:28;2.00;;;1.10;;
7150;SDS011;3617;48.836;9.172;2022-09-27T12:20:56;2.70;;;1.07;;
7150;SDS011;3617;48.836;9.172;2022-09-27T12:23:25;1.10;;;0.90;;
7150;SDS011;3617;48.836;9.172;2022-09-27T12:25:56;1.57;;;0.83;;
7150;SDS011;3617;48.836;9.172;2022-09-27T12:31:20;0.80;;;0.80;;
7150;SDS011;3617;48.836;9.172;2022-09-27T12:36:31;1.80;;;0.97;;
7150;SDS011;3617;48.836;9.172;2022-09-27T12:39:01;1.13;;;0.80;;
7150;SDS011;3617;48.836;9.172;2022-09-27T12:41:30;3.63;;;1.00;;
7150;SDS011;3617;48.836;9.172;2022-09-27T12:43:59;1.10;;;0.80;;
7150;SDS011;3617;48.836;9.172;2022-09-27T12:51:59;0.70;;;0.70;;
7150;SDS011;3617;48.836;9.172;2022-09-27T12:57:33;0.80;;;0.80;;
7150;SDS011;3617;48.836;9.172;2022-09-27T13:00:19;1.10;;;0.90;;
7150;SDS011;3617;48.836;9.172;2022-09-27T13:10:33;1.27;;;0.90;;
7150;SDS011;3617;48.836;9.172;2022-09-27T13:13:00;1.20;;;1.00;;
7150;SDS011;3617;48.836;9.172;2022-09-27T13:17:57;1.90;;;1.13;;
7150;SDS011;3617;48.836;9.172;2022-09-27T13:25:49;1.90;;;1.10;;
7150;SDS011;3617;48.836;9.172;2022-09-27T13:30:56;1.10;;;0.93;;
7150;SDS011;3617;48.836;9.172;2022-09-27T13:41:41;0.80;;;0.80;;
7150;SDS011;3617;48.836;9.172;2022-09-27T13:46:51;1.57;;;1.20;;
7150;SDS011;3617;48.836;9.172;2022-09-27T13:49:36;0.90;;;0.90;;
7150;SDS011;3617;48.836;9.172;2022-09-27T13:52:25;1.17;;;1.07;;
7150;SDS011;3617;48.836;9.172;2022-09-27T13:54:50;1.50;;;1.00;;
7150;SDS011;3617;48.836;9.172;2022-09-27T13:57:37;1.07;;;0.97;;
7150;SDS011;3617;48.836;9.172;2022-09-27T14:00:05;1.20;;;1.10;;
7150;SDS011;3617;48.836;9.172;2022-09-27T14:02:47;1.20;;;1.10;;
7150;SDS011;3617;48.836;9.172;2022-09-27T14:05:17;1.70;;;1.03;;
7150;SDS011;3617;48.836;9.172;2022-09-27T14:07:45;1.33;;;1.03;;
7150;SDS011;3617;48.836;9.172;2022-09-27T14:10:12;1.47;;;1.00;;
7150;SDS011;3617;48.836;9.172;2022-09-27T14:12:39;1.90;;;1.10;;
7150;SDS011;3617;48.836;9.172;2022-09-27T14:15:11;1.37;;;1.00;;
7150;SDS011;3617;48.836;9.172;2022-09-27T14:17:43;1.73;;;1.20;;
7150;SDS011;3617;48.836;9.172;2022-09-27T14:20:31;1.73;;;1.07;;
7150;SDS011;3617;48.836;9.172;2022-09-27T14:22:57;1.07;;;0.97;;
7150;SDS011;3617;48.836;9.172;2022-09-27T14:25:23;2.17;;;1.00;;
7150;SDS011;3617;48.836;9.172;2022-09-27T14:27:49;2.53;;;1.67;;
7150;SDS011;3617;48.836;9.172;2022-09-27T14:30:17;2.07;;;1.87;;
7150;SDS011;3617;48.836;9.172;2022-09-27T14:32:47;1.40;;;1.30;;
7150;SDS011;3617;48.836;9.172;2022-09-27T14:35:15;2.67;;;1.40;;
7150;SDS011;3617;48.836;9.172;2022-09-27T14:38:00;1.77;;;1.40;;
7150;SDS011;3617;48.836;9.172;2022-09-27T14:40:27;1.37;;;1.23;;
7150;SDS011;3617;48.836;9.172;2022-09-27T14:42:54;1.50;;;1.40;;
7150;SDS011;3617;48.836;9.172;2022-09-27T14:47:50;1.63;;;1.53;;
7150;SDS011;3617;48.836;9.172;2022-09-27T14:50:23;2.60;;;1.60;;
7150;SDS011;3617;48.836;9.172;2022-09-27T14:52:52;3.87;;;1.60;;
7150;SDS011;3617;48.836;9.172;2022-09-27T14:55:21;3.70;;;1.40;;
7150;SDS011;3617;48.836;9.172;2022-09-27T14:57:48;1.67;;;1.27;;
7150;SDS011;3617;48.836;9.172;2022-09-27T15:00:16;2.37;;;1.73;;
7150;SDS011;3617;48.836;9.172;2022-09-27T15:02:44;1.30;;;1.20;;
7150;SDS011;3617;48.836;9.172;2022-09-27T15:05:17;2.50;;;1.50;;
7150;SDS011;3617;48.836;9.172;2022-09-27T15:07:44;4.40;;;1.50;;
7150;SDS011;3617;48.836;9.172;2022-09-27T15:10:12;1.63;;;1.20;;
7150;SDS011;3617;48.836;9.172;2022-09-27T15:12:38;1.33;;;1.23;;
7150;SDS011;3617;48.836;9.172;2022-09-27T15:15:04;1.60;;;1.30;;
7150;SDS011;3617;48.836;9.172;2022-09-27T15:17:34;3.67;;;1.33;;
7150;SDS011;3617;48.836;9.172;2022-09-27T15:20:23;2.03;;;1.40;;
7150;SDS011;3617;48.836;9.172;2022-09-27T15:22:51;1.60;;;1.30;;
7150;SDS011;3617;48.836;9.172;2022-09-27T15:25:19;2.47;;;1.50;;
7150;SDS011;3617;48.836;9.172;2022-09-27T15:27:54;2.53;;;1.30;;
7150;SDS011;3617;48.836;9.172;2022-09-27T15:30:25;1.70;;;1.50;;
7150;SDS011;3617;48.836;9.172;2022-09-27T15:32:52;1.93;;;1.60;;
7150;SDS011;3617;48.836;9.172;2022-09-27T15:35:21;2.10;;;1.70;;
7150;SDS011;3617;48.836;9.172;2022-09-27T15:37:48;2.83;;;1.57;;
7150;SDS011;3617;48.836;9.172;2022-09-27T15:42:56;2.27;;;1.07;;
7150;SDS011;3617;48.836;9.172;2022-09-27T15:45:29;2.43;;;1.17;;
7150;SDS011;3617;48.836;9.172;2022-09-27T15:48:05;0.97;;;0.93;;
7150;SDS011;3617;48.836;9.172;2022-09-27T15:50:35;1.10;;;1.00;;
7150;SDS011;3617;48.836;9.172;2022-09-27T15:53:02;1.10;;;1.00;;
7150;SDS011;3617;48.836;9.172;2022-09-27T15:55:29;1.63;;;1.20;;
7150;SDS011;3617;48.836;9.172;2022-09-27T15:58:18;4.47;;;1.37;;
7150;SDS011;3617;48.836;9.172;2022-09-27T16:00:52;1.27;;;1.00;;
7150;SDS011;3617;48.836;9.172;2022-09-27T16:03:18;1.33;;;1.00;;
7150;SDS011;3617;48.836;9.172;2022-09-27T16:05:44;1.60;;;1.10;;
7150;SDS011;3617;48.836;9.172;2022-09-27T16:10:47;1.17;;;1.07;;
7150;SDS011;3617;48.836;9.172;2022-09-27T16:13:13;1.80;;;1.10;;
7150;SDS011;3617;48.836;9.172;2022-09-27T16:15:39;1.40;;;1.30;;
7150;SDS011;3617;48.836;9.172;2022-09-27T16:18:05;2.87;;;2.20;;
7150;SDS011;3617;48.836;9.172;2022-09-27T16:20:31;2.07;;;1.60;;
7150;SDS011;3617;48.836;9.172;2022-09-27T16:22:57;1.33;;;1.23;;
7150;SDS011;3617;48.836;9.172;2022-09-27T16:25:24;1.30;;;1.20;;
7150;SDS011;3617;48.836;9.172;2022-09-27T16:27:51;1.50;;;1.40;;
7150;SDS011;3617;48.836;9.172;2022-09-27T16:30:17;1.47;;;1.30;;
7150;SDS011;3617;48.836;9.172;2022-09-27T16:32:46;2.60;;;1.30;;
7150;SDS011;3617;48.836;9.172;2022-09-27T16:35:13;1.87;;;1.20;;
7150;SDS011;3617;48.836;9.172;2022-09-27T16:37:39;3.03;;;1.33;;
7150;SDS011;3617;48.836;9.172;2022-09-27T16:40:08;2.00;;;1.27;;
7150;SDS011;3617;48.836;9.172;2022-09-27T16:42:46;1.90;;;1.33;;
7150;SDS011;3617;48.836;9.172;2022-09-27T16:45:12;1.90;;;1.17;;
7150;SDS011;3617;48.836;9.172;2022-09-27T16:47:40;4.30;;;1.20;;
7150;SDS011;3617;48.836;9.172;2022-09-27T16:50:08;1.30;;;1.20;;
7150;SDS011;3617;48.836;9.172;2022-09-27T16:52:54;1.93;;;1.50;;
7150;SDS011;3617;48.836;9.172;2022-09-27T16:55:20;1.67;;;1.20;;
7150;SDS011;3617;48.836;9.172;2022-09-27T16:57:47;2.20;;;1.30;;
7150;SDS011;3617;48.836;9.172;2022-09-27T17:00:13;1.70;;;1.60;;
7150;SDS011;3617;48.836;9.172;2022-09-27T17:02:39;2.27;;;1.20;;
7150;SDS011;3617;48.836;9.172;2022-09-27T17:05:11;1.87;;;1.60;;
7150;SDS011;3617;48.836;9.172;2022-09-27T17:07:37;3.43;;;1.50;;
7150;SDS011;3617;48.836;9.172;2022-09-27T17:10:03;1.77;;;1.30;;
7150;SDS011;3617;48.836;9.172;2022-09-27T17:12:30;2.57;;;1.40;;
7150;SDS011;3617;48.836;9.172;2022-09-27T17:14:56;1.27;;;1.17;;
7150;SDS011;3617;48.836;9.172;2022-09-27T17:17:22;4.73;;;1.40;;
7150;SDS011;3617;48.836;9.172;2022-09-27T17:19:49;3.03;;;1.30;;
7150;SDS011;3617;48.836;9.172;2022-09-27T17:22:15;1.57;;;1.00;;
7150;SDS011;3617;48.836;9.172;2022-09-27T17:24:41;2.10;;;1.10;;
7150;SDS011;3617;48.836;9.172;2022-09-27T17:27:07;3.70;;;1.27;;
7150;SDS011;3617;48.836;9.172;2022-09-27T17:29:33;1.20;;;1.07;;
7150;SDS011;3617;48.836;9.172;2022-09-27T17:31:59;2.17;;;1.20;;
7150;SDS011;3617;48.836;9.172;2022-09-27T17:34:25;1.37;;;1.20;;
7150;SDS011;3617;48.836;9.172;2022-09-27T17:36:52;1.33;;;1.23;;
7150;SDS011;3617;48.836;9.172;2022-09-27T17:39:19;1.53;;;1.30;;
7150;SDS011;3617;48.836;9.172;2022-09-27T17:41:45;1.37;;;1.27;;
7150;SDS011;3617;48.836;9.172;2022-09-27T17:44:12;1.60;;;1.30;;